createdAt,value
2023-05-25T00:01:03.149Z,99319.91
2023-05-25T00:06:05.797Z,99316.30
2023-05-25T00:11:07.728Z,99320.80
2023-05-25T00:16:09.484Z,99330.62
2023-05-25T00:21:11.980Z,99331.97
2023-05-25T00:26:13.722Z,99332.15
2023-05-25T00:31:15.705Z,99332.13
2023-05-25T00:36:18.200Z,99325.92
2023-05-25T00:41:20.940Z,99329.89
2023-05-25T00:46:23.866Z,99330.92
2023-05-25T00:51:26.462Z,99331.61
2023-05-25T00:56:33.130Z,99328.38
2023-05-25T01:01:40.295Z,99326.98
2023-05-25T01:06:47.150Z,99327.73
2023-05-25T01:11:51.374Z,99328.62
2023-05-25T01:16:55.358Z,99324.15
2023-05-25T01:22:08.102Z,99322.73
2023-05-25T01:27:21.223Z,99322.66
2023-05-25T01:32:25.004Z,99329.92
2023-05-25T01:37:27.863Z,99334.08
2023-05-25T01:42:31.858Z,99335.29
2023-05-25T01:48:11.683Z,99334.60
2023-05-25T01:53:23.907Z,99334.98
2023-05-25T01:58:27.447Z,99336.20
2023-05-25T02:03:29.333Z,99335.14
2023-05-25T02:08:31.278Z,99332.52
2023-05-25T02:13:34.956Z,99330.26
2023-05-25T02:18:37.234Z,99330.77
2023-05-25T02:23:39.057Z,99333.15
2023-05-25T02:28:41.271Z,99335.17
2023-05-25T02:33:43.087Z,99332.18
2023-05-25T02:38:45.614Z,99335.66
2023-05-25T02:43:48.144Z,99342.20
2023-05-25T02:48:50.688Z,99337.44
2023-05-25T02:53:53.309Z,99334.48
2023-05-25T02:58:55.529Z,99328.30
2023-05-25T03:04:15.616Z,99328.52
2023-05-25T03:09:18.586Z,99332.88
2023-05-25T03:14:22.565Z,99334.64
2023-05-25T03:19:29.671Z,99339.20
2023-05-25T03:24:31.493Z,99335.27
2023-05-25T03:29:35.945Z,99338.20
2023-05-25T03:34:38.396Z,99336.48
2023-05-25T03:39:40.547Z,99338.20
2023-05-25T03:44:42.898Z,99339.42
2023-05-25T03:49:45.172Z,99343.61
2023-05-25T03:54:48.055Z,99351.94
2023-05-25T03:59:50.124Z,99355.58
2023-05-25T04:07:13.464Z,99360.13
2023-05-25T04:12:15.304Z,99366.08
2023-05-25T04:17:19.096Z,99366.72
2023-05-25T04:22:21.405Z,99378.16
2023-05-25T04:27:23.268Z,99381.95
2023-05-25T04:32:29.872Z,99385.21
2023-05-25T04:38:12.452Z,99388.96
2023-05-25T04:43:18.180Z,99389.88
2023-05-25T04:48:21.615Z,99392.02
2023-05-25T04:53:23.702Z,99401.52
2023-05-25T04:58:26.191Z,99402.94
2023-05-25T05:03:38.140Z,99405.16
2023-05-25T05:08:41.802Z,99407.64
2023-05-25T05:13:48.231Z,99414.59
2023-05-25T05:18:50.660Z,99415.90
2023-05-25T05:23:52.583Z,99423.89
2023-05-25T05:28:54.663Z,99432.46
2023-05-25T05:33:57.436Z,99428.10
2023-05-25T05:39:01.059Z,99425.06
2023-05-25T05:44:03.696Z,99427.02
2023-05-25T05:49:05.458Z,99427.85
2023-05-25T05:54:07.225Z,99435.02
2023-05-25T05:59:11.806Z,99438.71
2023-05-25T06:04:15.032Z,99444.94
2023-05-25T06:09:17.806Z,99449.16
2023-05-25T06:14:19.658Z,99455.22
2023-05-25T06:19:21.529Z,99459.40
2023-05-25T06:24:23.284Z,99466.89
2023-05-25T06:29:25.246Z,99469.65
2023-05-25T06:34:27.234Z,99469.13
2023-05-25T06:39:29.212Z,99474.71
2023-05-25T06:44:31.103Z,99473.57
2023-05-25T06:49:36.734Z,99481.67
2023-05-25T06:54:38.553Z,99478.76
2023-05-25T06:59:40.468Z,99478.06
2023-05-25T07:04:42.444Z,99483.70
2023-05-25T07:09:44.334Z,99488.70
2023-05-25T07:14:48.385Z,99487.12
2023-05-25T07:19:50.123Z,99488.39
2023-05-25T07:24:51.834Z,99488.84
2023-05-25T07:29:53.921Z,99490.70
2023-05-25T07:34:55.987Z,99495.71
2023-05-25T07:39:57.983Z,99498.83
2023-05-25T07:45:01.298Z,99503.59
2023-05-25T07:50:03.244Z,99504.89
2023-05-25T07:55:09.002Z,99507.45
2023-05-25T08:00:12.782Z,99505.64
2023-05-25T08:05:17.282Z,99503.58
2023-05-25T08:10:19.407Z,99508.47
2023-05-25T08:15:21.391Z,99503.67
2023-05-25T08:20:25.237Z,99499.36
2023-05-25T08:25:26.985Z,99499.38
2023-05-25T08:30:29.264Z,99497.06
2023-05-25T08:35:31.082Z,99497.66
2023-05-25T08:40:32.810Z,99499.89
2023-05-25T08:45:36.712Z,99501.52
2023-05-25T08:50:41.366Z,99508.13
2023-05-25T08:55:44.066Z,99508.75
2023-05-25T09:00:55.811Z,99508.48
2023-05-25T09:05:58.170Z,99507.04
2023-05-25T09:11:02.422Z,99502.79
2023-05-25T09:16:04.906Z,99509.06
2023-05-25T09:21:06.615Z,99509.35
2023-05-25T09:26:08.940Z,99513.59
2023-05-25T09:31:10.973Z,99506.33
2023-05-25T09:36:15.402Z,99504.90
2023-05-25T09:41:17.213Z,99508.36
2023-05-25T09:46:19.037Z,99509.52
2023-05-25T09:51:21.758Z,99517.83
2023-05-25T09:56:24.725Z,99513.73
2023-05-25T10:01:27.358Z,99508.89
2023-05-25T10:06:29.505Z,99507.11
2023-05-25T10:11:33.920Z,99502.77
2023-05-25T10:16:41.449Z,99510.85
2023-05-25T10:22:14.082Z,99503.99
2023-05-25T10:32:44.517Z,99497.60
2023-05-25T10:37:47.732Z,99500.60
2023-05-25T10:42:52.297Z,99504.05
2023-05-25T10:47:54.134Z,99504.55
2023-05-25T10:53:00.142Z,99505.94
2023-05-25T10:58:10.482Z,99506.68
2023-05-25T11:03:12.350Z,99503.02
2023-05-25T11:08:17.764Z,99501.96
2023-05-25T11:13:31.652Z,99499.05
2023-05-25T11:18:41.637Z,99494.36
2023-05-25T11:24:00.081Z,99490.04
2023-05-25T11:29:15.938Z,99489.67
2023-05-25T11:34:18.807Z,99488.09
2023-05-25T11:39:23.406Z,99486.71
2023-05-25T11:44:33.915Z,99486.73
2023-05-25T11:49:42.040Z,99490.04
2023-05-25T11:54:44.799Z,99485.17
2023-05-25T12:00:02.054Z,99480.82
2023-05-25T12:05:08.500Z,99479.96
2023-05-25T12:10:13.078Z,99472.19
2023-05-25T12:15:25.816Z,99471.84
2023-05-25T12:20:27.776Z,99466.65
2023-05-25T12:25:46.090Z,99465.27
2023-05-25T12:30:52.041Z,99468.55
2023-05-25T12:35:55.776Z,99466.64
2023-05-25T12:41:07.967Z,99463.67
2023-05-25T12:46:10.075Z,99463.34
2023-05-25T12:51:12.310Z,99459.88
2023-05-25T12:56:14.076Z,99455.20
2023-05-25T13:01:16.092Z,99446.38
2023-05-25T13:06:18.078Z,99448.12
2023-05-25T13:11:19.795Z,99447.58
2023-05-25T13:16:21.623Z,99444.30
2023-05-25T13:21:23.617Z,99447.06
2023-05-25T13:26:25.765Z,99446.18
2023-05-25T13:31:27.821Z,99440.42
2023-05-25T13:36:29.971Z,99440.77
2023-05-25T13:41:31.761Z,99439.48
2023-05-25T13:46:35.386Z,99441.59
2023-05-25T13:51:38.356Z,99442.13
2023-05-25T13:56:42.425Z,99444.33
2023-05-25T14:01:44.356Z,99443.77
2023-05-25T14:06:46.527Z,99439.59
2023-05-25T14:11:48.500Z,99439.80
2023-05-25T14:16:50.249Z,99430.89
2023-05-25T14:22:11.220Z,99425.84
2023-05-25T14:27:21.285Z,99420.84
2023-05-25T14:32:22.997Z,99419.37
2023-05-25T14:37:24.795Z,99414.55
2023-05-25T14:42:27.147Z,99416.11
2023-05-25T14:47:28.948Z,99415.50
2023-05-25T14:52:30.800Z,99420.30
2023-05-25T14:57:32.534Z,99415.17
2023-05-25T15:02:34.368Z,99413.20
2023-05-25T15:07:36.278Z,99410.48
2023-05-25T15:12:38.054Z,99413.09
2023-05-25T15:17:40.138Z,99411.02
2023-05-25T15:22:42.036Z,99412.40
2023-05-25T15:27:43.777Z,99408.03
2023-05-25T15:32:45.534Z,99405.05
2023-05-25T15:37:48.334Z,99404.53
2023-05-25T15:42:50.368Z,99396.39
2023-05-25T15:47:52.217Z,99396.76
2023-05-25T15:52:54.073Z,99397.48
2023-05-25T15:57:55.830Z,99396.14
2023-05-25T16:02:58.283Z,99395.29
2023-05-25T16:08:00.100Z,99396.16
2023-05-25T16:13:01.887Z,99391.81
2023-05-25T16:18:03.885Z,99394.41
2023-05-25T16:23:06.451Z,99395.10
2023-05-25T16:28:08.135Z,99394.94
2023-05-25T16:33:09.944Z,99393.02
2023-05-25T16:38:11.674Z,99391.65
2023-05-25T16:43:13.381Z,99387.31
2023-05-25T16:48:15.431Z,99384.37
2023-05-25T16:53:17.285Z,99385.41
2023-05-25T16:58:19.025Z,99386.45
2023-05-25T17:03:20.734Z,99384.55
2023-05-25T17:08:22.604Z,99380.21
2023-05-25T17:13:24.291Z,99379.13
2023-05-25T17:18:26.966Z,99380.16
2023-05-25T17:23:28.803Z,99385.50
2023-05-25T17:28:32.870Z,99387.55
2023-05-25T17:33:34.639Z,99386.00
2023-05-25T17:38:38.100Z,99378.89
2023-05-25T17:43:39.800Z,99384.77
2023-05-25T17:48:41.458Z,99384.92
2023-05-25T17:53:43.150Z,99388.73
2023-05-25T17:58:47.642Z,99393.55
2023-05-25T18:03:53.953Z,99388.85
2023-05-25T18:08:56.655Z,99387.77
2023-05-25T18:13:58.446Z,99383.22
2023-05-25T18:19:00.222Z,99392.88
2023-05-25T18:24:01.923Z,99395.11
2023-05-25T18:29:03.715Z,99401.69
2023-05-25T18:34:06.918Z,99403.07
2023-05-25T18:39:08.700Z,99406.48
2023-05-25T18:44:10.492Z,99411.64
2023-05-25T18:49:12.677Z,99419.34
2023-05-25T18:54:14.397Z,99421.58
2023-05-25T18:59:16.508Z,99418.61
2023-05-25T19:04:18.421Z,99421.17
2023-05-25T19:09:20.158Z,99430.12
2023-05-25T19:14:21.890Z,99432.67
2023-05-25T19:19:23.607Z,99428.30
2023-05-25T19:24:25.311Z,99429.14
2023-05-25T19:29:27.125Z,99426.84
2023-05-25T19:34:28.863Z,99420.55
2023-05-25T19:39:31.787Z,99424.62
2023-05-25T19:44:33.468Z,99426.11
2023-05-25T19:49:35.219Z,99423.30
2023-05-25T19:54:38.078Z,99429.97
2023-05-25T19:59:39.847Z,99424.96
2023-05-25T20:04:41.520Z,99421.32
2023-05-25T20:09:44.076Z,99426.65
2023-05-25T20:14:45.754Z,99423.51
2023-05-25T20:19:47.502Z,99425.17
2023-05-25T20:24:50.167Z,99429.05
2023-05-25T20:29:51.950Z,99424.30
2023-05-25T20:34:53.646Z,99430.27
2023-05-25T20:39:55.618Z,99425.56
2023-05-25T20:45:00.165Z,99429.48
2023-05-25T20:50:01.911Z,99423.56
2023-05-25T20:55:03.940Z,99425.05
2023-05-25T21:00:06.749Z,99423.31
2023-05-25T21:05:09.063Z,99427.08
2023-05-25T21:10:11.513Z,99427.41
2023-05-25T21:15:19.118Z,99428.98
2023-05-25T21:20:21.109Z,99428.98
2023-05-25T21:25:22.998Z,99428.13
2023-05-25T21:30:24.776Z,99428.15
2023-05-25T21:35:26.597Z,99429.37
2023-05-25T21:40:28.688Z,99426.84
2023-05-25T21:45:31.240Z,99422.89
2023-05-25T21:50:33.070Z,99430.68
2023-05-25T21:55:54.837Z,99428.47
2023-05-25T22:00:56.655Z,99427.94
2023-05-25T22:05:58.565Z,99432.63
2023-05-25T22:11:00.314Z,99429.05
2023-05-25T22:16:02.077Z,99428.19
2023-05-25T22:21:03.878Z,99432.67
2023-05-25T22:26:05.828Z,99438.07
2023-05-25T22:31:07.625Z,99437.27
2023-05-25T22:36:09.376Z,99433.70
2023-05-25T22:41:11.453Z,99433.23
2023-05-25T22:46:13.242Z,99435.46
2023-05-25T22:51:17.795Z,99433.52
2023-05-25T22:56:19.504Z,99428.63
2023-05-25T23:01:21.373Z,99427.38
2023-05-25T23:06:23.198Z,99428.37
2023-05-25T23:11:27.115Z,99427.66
2023-05-25T23:16:29.507Z,99422.91
2023-05-25T23:21:31.642Z,99425.06
2023-05-25T23:26:33.686Z,99418.44
2023-05-25T23:31:35.527Z,99421.16
2023-05-25T23:36:37.339Z,99419.45
2023-05-25T23:41:39.059Z,99417.60
2023-05-25T23:46:41.865Z,99416.97
2023-05-25T23:51:45.858Z,99416.28
2023-05-25T23:56:49.544Z,99421.23
